Vera Bisso — WDC3027 — position and weather

sailwx.info

Track history (hours):
 
Tides and Currents Weather Stations Pressure Air Temp Water Temp Dewpoint Dewpoint Depression Visibility Wind Speed Wind Dir Waves Ship Positions

Vera Bisso

More information available from US FCC via Universal Licensing System and Coast Guard Vessel Documentation Center.

Last reported at 2014-Sep-18 13:16 UTC. Time now 2014-Sep-20 03:59 UTC.
Position N 30°03' W 090°30'.

Length 30 m; draft 6 m.

Type: Tug. MMSI: 367001730.

Date/timePositionNaut miles runAvg speedWind from/ knotsBaromVisibWave heightAir tempDewpointWater temp
2014-Sep-18 13:16N 30°03' W 090°30'2 2.9
2014-Sep-18 12:33N 30°03' W 090°32'1 0.7
2014-Sep-18 11:33N 30°03' W 090°32'1 0.7
2014-Sep-18 10:33N 30°03' W 090°32'2 1.5
2014-Sep-18 09:33N 30°03' W 090°34'0 0.0
2014-Sep-18 08:33N 30°03' W 090°34'0 0.0
2014-Sep-18 07:33N 30°03' W 090°34'0 0.0
2014-Sep-18 06:33N 30°03' W 090°34'0 0.0
2014-Sep-18 05:33N 30°03' W 090°34'0 0.0
2014-Sep-18 04:33N 30°03' W 090°34'0 0.0
2014-Sep-18 03:33N 30°03' W 090°34'0 0.0
2014-Sep-18 02:33N 30°03' W 090°34'0 0.0
2014-Sep-18 01:33N 30°03' W 090°34'1 0.7
2014-Sep-18 00:33N 30°03' W 090°35'0 0.1
2014-Sep-17 23:33N 30°03' W 090°35'1 1.3
2014-Sep-17 22:33N 30°03' W 090°33'0 0.0
2014-Sep-17 21:33N 30°03' W 090°33'0 0.0
2014-Sep-17 20:33N 30°03' W 090°33'0 0.0
2014-Sep-17 19:33N 30°03' W 090°33'0 0.0
2014-Sep-17 18:33N 30°03' W 090°33'0 0.0
2014-Sep-17 17:33N 30°03' W 090°33'0 0.0
2014-Sep-17 16:33N 30°03' W 090°33'0 0.0
2014-Sep-17 15:33N 30°03' W 090°33'0 0.0
2014-Sep-17 14:33N 30°03' W 090°33'0 0.0
2014-Sep-17 13:33N 30°03' W 090°33'1 1.4
2014-Sep-17 12:33N 30°03' W 090°32'0 0.3
2014-Sep-17 11:33N 30°03' W 090°32'0 0.3
2014-Sep-17 10:33N 30°03' W 090°32'2 2.0
2014-Sep-17 09:33N 30°03' W 090°34'0 0.0
2014-Sep-17 08:33N 30°03' W 090°34'0 0.0
2014-Sep-17 07:33N 30°03' W 090°34'0 0.0
2014-Sep-17 06:33N 30°03' W 090°34'0 0.0
2014-Sep-17 05:33N 30°03' W 090°34'0 0.0
2014-Sep-17 04:33N 30°03' W 090°34'0 0.0
2014-Sep-17 03:33N 30°03' W 090°34'0 0.0
2014-Sep-17 02:33N 30°03' W 090°34'0 0.0
2014-Sep-17 01:33N 30°03' W 090°34'0 0.0
2014-Sep-17 00:33N 30°03' W 090°34'0 0.0
2014-Sep-16 23:33N 30°03' W 090°34'0 0.0
2014-Sep-16 22:33N 30°03' W 090°34'0 0.0
2014-Sep-16 21:33N 30°03' W 090°34'0 0.0
2014-Sep-16 20:33N 30°03' W 090°34'0 0.0
2014-Sep-16 19:33N 30°03' W 090°34'0 0.0
2014-Sep-16 18:33N 30°03' W 090°34'0 0.0
2014-Sep-16 17:33N 30°03' W 090°34'1 1.2
2014-Sep-16 16:33N 30°03' W 090°33'0 0.0
2014-Sep-16 15:33N 30°03' W 090°33'0 0.0
2014-Sep-16 14:33N 30°03' W 090°33'0 0.0
2014-Sep-16 13:33N 30°03' W 090°33'0 0.0
2014-Sep-16 12:33N 30°03' W 090°33'6 6.3
2014-Sep-16 11:33N 30°03' W 090°40'4 4.5
2014-Sep-16 10:33N 30°03' W 090°35'1 0.7
2014-Sep-16 09:33N 30°03' W 090°34'0 0.0
2014-Sep-16 08:33N 30°03' W 090°34'0 0.0
2014-Sep-16 07:33N 30°03' W 090°34'0 0.0
2014-Sep-16 06:33N 30°03' W 090°34'0 0.0
2014-Sep-16 05:33N 30°03' W 090°34'0 0.0
2014-Sep-16 04:33N 30°03' W 090°34'0 0.0
2014-Sep-16 03:33N 30°03' W 090°34'0 0.0
2014-Sep-16 02:33N 30°03' W 090°34'0 0.0
2014-Sep-16 01:33N 30°03' W 090°34'2 1.6
2014-Sep-16 00:33N 30°03' W 090°36'4 3.5
2014-Sep-15 23:33N 30°03' W 090°40'0 0.0
2014-Sep-15 22:20N 30°03' W 090°40'4 0.3
2014-Sep-15 06:30N 30°01' W 090°44'0 0.0
2014-Sep-14 12:31N 30°01' W 090°44'0 0.0
2014-Sep-14 11:33N 30°01' W 090°44'0 0.0
2014-Sep-14 10:32N 30°01' W 090°44'0 0.0
2014-Sep-14 09:33N 30°01' W 090°44'0 0.0
2014-Sep-14 08:33N 30°01' W 090°44'0 0.0
2014-Sep-14 07:33N 30°01' W 090°44'1 0.5
2014-Sep-14 06:31N 30°01' W 090°44'10 1.1
2014-Sep-13 21:33N 30°03' W 090°33'0 0.0
2014-Sep-13 20:33N 30°03' W 090°33'0 0.0
2014-Sep-13 19:33N 30°03' W 090°33'0 0.0
2014-Sep-13 18:33N 30°03' W 090°33'0 0.0
2014-Sep-13 17:33N 30°03' W 090°33'0 0.1
2014-Sep-13 16:33N 30°03' W 090°34'0 0.5
2014-Sep-13 15:33N 30°03' W 090°34'0 0.0
2014-Sep-13 14:33N 30°03' W 090°34'0 0.0
2014-Sep-13 13:33N 30°03' W 090°34'0 0.0
2014-Sep-13 12:33N 30°03' W 090°34'0 0.0
2014-Sep-13 11:33N 30°03' W 090°34'0 0.0
2014-Sep-13 10:33N 30°03' W 090°34'0 0.0
2014-Sep-13 09:33N 30°03' W 090°34'0 0.0
2014-Sep-13 08:33N 30°03' W 090°34'0 0.0
2014-Sep-13 07:33N 30°03' W 090°34'0 0.2
2014-Sep-13 06:33N 30°03' W 090°34'0 0.0
2014-Sep-13 05:33N 30°03' W 090°34'0 0.4
2014-Sep-13 04:33N 30°03' W 090°33'0 0.0
2014-Sep-13 03:33N 30°03' W 090°33'0 0.0
2014-Sep-13 02:33N 30°03' W 090°33'0 0.0
2014-Sep-13 01:33N 30°03' W 090°33'0 0.0
2014-Sep-13 00:33N 30°03' W 090°33'0 0.0
2014-Sep-12 23:33N 30°03' W 090°33'0 0.0
2014-Sep-12 22:33N 30°03' W 090°33'0 0.0
2014-Sep-12 21:33N 30°03' W 090°33'0 0.0
2014-Sep-12 20:33N 30°03' W 090°33'0 0.0
2014-Sep-12 19:33N 30°03' W 090°33'2 1.3
2014-Sep-12 18:15N 30°03' W 090°35'0 0.0
2014-Sep-12 17:27N 30°03' W 090°35'2 2.0
2014-Sep-12 16:33N 30°03' W 090°33'0 0.0
2014-Sep-12 15:33N 30°03' W 090°33'0 0.0
2014-Sep-12 14:33N 30°03' W 090°33'0 0.0
2014-Sep-12 13:33N 30°03' W 090°33'0 0.0
2014-Sep-12 12:33N 30°03' W 090°33'2 1.8
2014-Sep-12 11:33N 30°03' W 090°35'2 1.8
2014-Sep-12 10:33N 30°03' W 090°33'0 0.0
2014-Sep-12 09:33N 30°03' W 090°33'0 0.0
2014-Sep-12 08:33N 30°03' W 090°33'0 0.0
2014-Sep-12 07:33N 30°03' W 090°33'0 0.0
2014-Sep-12 06:33N 30°03' W 090°33'0 0.0
2014-Sep-12 05:33N 30°03' W 090°33'0 0.0
2014-Sep-12 04:33N 30°03' W 090°33'0 0.0
2014-Sep-12 03:33N 30°03' W 090°33'0 0.0
2014-Sep-12 02:33N 30°03' W 090°33'0 0.0
2014-Sep-12 01:33N 30°03' W 090°33'0 0.0
2014-Sep-12 00:33N 30°03' W 090°33'0 0.0
2014-Sep-11 23:33N 30°03' W 090°33'0 0.0
2014-Sep-11 22:33N 30°03' W 090°33'0 0.0
2014-Sep-11 21:33N 30°03' W 090°33'0 0.0
2014-Sep-11 20:33N 30°03' W 090°33'0 0.0
2014-Sep-11 19:33N 30°03' W 090°33'0 0.0
2014-Sep-11 18:33N 30°03' W 090°33'0 0.0
2014-Sep-11 17:33N 30°03' W 090°33'0 0.0
2014-Sep-11 16:33N 30°03' W 090°33'0 0.0
2014-Sep-11 15:33N 30°03' W 090°33'0 0.0
2014-Sep-11 14:33N 30°03' W 090°33'0 0.0
2014-Sep-11 13:33N 30°03' W 090°33'0 0.0
2014-Sep-11 12:33N 30°03' W 090°33'0 0.0
2014-Sep-11 11:33N 30°03' W 090°33'1 1.0
2014-Sep-11 10:33N 30°03' W 090°32'1 1.2
2014-Sep-11 09:33N 30°03' W 090°31'0 0.0
2014-Sep-11 08:33N 30°03' W 090°31'0 0.0
2014-Sep-11 07:33N 30°03' W 090°31'3 3.2
2014-Sep-11 06:33N 30°01' W 090°28'4 4.2
2014-Sep-11 05:33N 29°59' W 090°24'3 2.7
2014-Sep-11 04:33N 29°57' W 090°23'0 0.0
2014-Sep-11 03:33N 29°57' W 090°23'0 0.0
2014-Sep-11 02:33N 29°57' W 090°23'0 0.0
2014-Sep-11 01:32N 29°57' W 090°23'0 0.0
2014-Sep-11 00:32N 29°57' W 090°23'0 0.1
2014-Sep-10 23:33N 29°57' W 090°23'2 2.2
2014-Sep-10 22:29N 29°59' W 090°24'8 1.4
2014-Sep-10 16:33N 30°03' W 090°32'1 1.2
2014-Sep-10 15:33N 30°03' W 090°33'0 0.0
2014-Sep-10 14:33N 30°03' W 090°33'0 0.0
2014-Sep-10 13:33N 30°03' W 090°33'0 0.0
2014-Sep-10 12:33N 30°03' W 090°33'0 0.0
2014-Sep-10 11:33N 30°03' W 090°33'0 0.0
2014-Sep-10 10:33N 30°03' W 090°33'0 0.0
2014-Sep-10 09:33N 30°03' W 090°33'0 0.0
2014-Sep-10 08:33N 30°03' W 090°33'0 0.0
2014-Sep-10 07:33N 30°03' W 090°33'0 0.0
2014-Sep-10 06:33N 30°03' W 090°33'0 0.0
2014-Sep-10 05:33N 30°03' W 090°33'0 0.0
2014-Sep-10 04:33N 30°03' W 090°33'0 0.0
2014-Sep-10 03:33N 30°03' W 090°33'0 0.0
2014-Sep-10 02:33N 30°03' W 090°33'0 0.0
2014-Sep-10 01:33N 30°03' W 090°33'0 0.0
2014-Sep-10 00:33N 30°03' W 090°33'0 0.0
2014-Sep-09 23:33N 30°03' W 090°33'0 0.0
2014-Sep-09 22:33N 30°03' W 090°33'0 0.0
2014-Sep-09 21:33N 30°03' W 090°33'0 0.0
2014-Sep-09 20:33N 30°03' W 090°33'0 0.0
2014-Sep-09 19:33N 30°03' W 090°33'1 0.6
2014-Sep-09 18:33N 30°03' W 090°33'0 0.4
2014-Sep-09 17:33N 30°03' W 090°32'0 0.0
2014-Sep-09 16:33N 30°03' W 090°32'0 0.0
2014-Sep-09 15:33N 30°03' W 090°32'3 2.8
2014-Sep-09 14:33N 30°03' W 090°36'1 1.3
2014-Sep-09 13:33N 30°03' W 090°34'0 0.0
2014-Sep-09 12:33N 30°03' W 090°34'0 0.0
2014-Sep-09 11:33N 30°03' W 090°34'0 0.0
2014-Sep-09 10:33N 30°03' W 090°34'0 0.0
2014-Sep-09 09:33N 30°03' W 090°34'0 0.0
2014-Sep-09 08:33N 30°03' W 090°34'0 0.0
2014-Sep-09 07:33N 30°03' W 090°34'0 0.0
2014-Sep-09 06:33N 30°03' W 090°34'0 0.0
2014-Sep-09 05:30N 30°03' W 090°34'0 0.5
2014-Sep-09 04:33N 30°03' W 090°35'1 1.1
2014-Sep-09 03:33N 30°03' W 090°33'0 0.0
2014-Sep-09 02:33N 30°03' W 090°33'0 0.0
2014-Sep-09 01:33N 30°03' W 090°33'0 0.0
2014-Sep-09 00:33N 30°03' W 090°33'0 0.0
2014-Sep-08 23:33N 30°03' W 090°33'0 0.0
2014-Sep-08 22:33N 30°03' W 090°33'0 0.0
2014-Sep-08 21:33N 30°03' W 090°33'0 0.0
2014-Sep-08 20:33N 30°03' W 090°33'  
Track history (hours):
 
Tides and Currents Weather Stations Pressure Air Temp Water Temp Dewpoint Dewpoint Depression Visibility Wind Speed Wind Dir Waves Ship Positions

Vera Bisso

More information available from US FCC via Universal Licensing System and Coast Guard Vessel Documentation Center.

Last reported at 2014-Sep-18 13:16 UTC. Time now 2014-Sep-20 03:59 UTC.
Position N 30°03' W 090°30'.

Length 30 m; draft 6 m.

Type: Tug. MMSI: 367001730.

Date/timePositionNaut miles runAvg speedWind from/ knotsBaromVisibWave heightAir tempDewpointWater temp
2014-Sep-18 13:16N 30°03' W 090°30'2 2.9
2014-Sep-18 12:33N 30°03' W 090°32'1 0.7
2014-Sep-18 11:33N 30°03' W 090°32'1 0.7
2014-Sep-18 10:33N 30°03' W 090°32'2 1.5
2014-Sep-18 09:33N 30°03' W 090°34'0 0.0
2014-Sep-18 08:33N 30°03' W 090°34'0 0.0
2014-Sep-18 07:33N 30°03' W 090°34'0 0.0
2014-Sep-18 06:33N 30°03' W 090°34'0 0.0
2014-Sep-18 05:33N 30°03' W 090°34'0 0.0
2014-Sep-18 04:33N 30°03' W 090°34'0 0.0
2014-Sep-18 03:33N 30°03' W 090°34'0 0.0
2014-Sep-18 02:33N 30°03' W 090°34'0 0.0
2014-Sep-18 01:33N 30°03' W 090°34'1 0.7
2014-Sep-18 00:33N 30°03' W 090°35'0 0.1
2014-Sep-17 23:33N 30°03' W 090°35'1 1.3
2014-Sep-17 22:33N 30°03' W 090°33'0 0.0
2014-Sep-17 21:33N 30°03' W 090°33'0 0.0
2014-Sep-17 20:33N 30°03' W 090°33'0 0.0
2014-Sep-17 19:33N 30°03' W 090°33'0 0.0
2014-Sep-17 18:33N 30°03' W 090°33'0 0.0
2014-Sep-17 17:33N 30°03' W 090°33'0 0.0
2014-Sep-17 16:33N 30°03' W 090°33'0 0.0
2014-Sep-17 15:33N 30°03' W 090°33'0 0.0
2014-Sep-17 14:33N 30°03' W 090°33'0 0.0
2014-Sep-17 13:33N 30°03' W 090°33'1 1.4
2014-Sep-17 12:33N 30°03' W 090°32'0 0.3
2014-Sep-17 11:33N 30°03' W 090°32'0 0.3
2014-Sep-17 10:33N 30°03' W 090°32'2 2.0
2014-Sep-17 09:33N 30°03' W 090°34'0 0.0
2014-Sep-17 08:33N 30°03' W 090°34'0 0.0
2014-Sep-17 07:33N 30°03' W 090°34'0 0.0
2014-Sep-17 06:33N 30°03' W 090°34'0 0.0
2014-Sep-17 05:33N 30°03' W 090°34'0 0.0
2014-Sep-17 04:33N 30°03' W 090°34'0 0.0
2014-Sep-17 03:33N 30°03' W 090°34'0 0.0
2014-Sep-17 02:33N 30°03' W 090°34'0 0.0
2014-Sep-17 01:33N 30°03' W 090°34'0 0.0
2014-Sep-17 00:33N 30°03' W 090°34'0 0.0
2014-Sep-16 23:33N 30°03' W 090°34'0 0.0
2014-Sep-16 22:33N 30°03' W 090°34'0 0.0
2014-Sep-16 21:33N 30°03' W 090°34'0 0.0
2014-Sep-16 20:33N 30°03' W 090°34'0 0.0
2014-Sep-16 19:33N 30°03' W 090°34'0 0.0
2014-Sep-16 18:33N 30°03' W 090°34'0 0.0
2014-Sep-16 17:33N 30°03' W 090°34'1 1.2
2014-Sep-16 16:33N 30°03' W 090°33'0 0.0
2014-Sep-16 15:33N 30°03' W 090°33'0 0.0
2014-Sep-16 14:33N 30°03' W 090°33'0 0.0
2014-Sep-16 13:33N 30°03' W 090°33'0 0.0
2014-Sep-16 12:33N 30°03' W 090°33'6 6.3
2014-Sep-16 11:33N 30°03' W 090°40'4 4.5
2014-Sep-16 10:33N 30°03' W 090°35'1 0.7
2014-Sep-16 09:33N 30°03' W 090°34'0 0.0
2014-Sep-16 08:33N 30°03' W 090°34'0 0.0
2014-Sep-16 07:33N 30°03' W 090°34'0 0.0
2014-Sep-16 06:33N 30°03' W 090°34'0 0.0
2014-Sep-16 05:33N 30°03' W 090°34'0 0.0
2014-Sep-16 04:33N 30°03' W 090°34'0 0.0
2014-Sep-16 03:33N 30°03' W 090°34'0 0.0
2014-Sep-16 02:33N 30°03' W 090°34'0 0.0
2014-Sep-16 01:33N 30°03' W 090°34'2 1.6
2014-Sep-16 00:33N 30°03' W 090°36'4 3.5
2014-Sep-15 23:33N 30°03' W 090°40'0 0.0
2014-Sep-15 22:20N 30°03' W 090°40'4 0.3
2014-Sep-15 06:30N 30°01' W 090°44'0 0.0
2014-Sep-14 12:31N 30°01' W 090°44'0 0.0
2014-Sep-14 11:33N 30°01' W 090°44'0 0.0
2014-Sep-14 10:32N 30°01' W 090°44'0 0.0
2014-Sep-14 09:33N 30°01' W 090°44'0 0.0
2014-Sep-14 08:33N 30°01' W 090°44'0 0.0
2014-Sep-14 07:33N 30°01' W 090°44'1 0.5
2014-Sep-14 06:31N 30°01' W 090°44'10 1.1
2014-Sep-13 21:33N 30°03' W 090°33'0 0.0
2014-Sep-13 20:33N 30°03' W 090°33'0 0.0
2014-Sep-13 19:33N 30°03' W 090°33'0 0.0
2014-Sep-13 18:33N 30°03' W 090°33'0 0.0
2014-Sep-13 17:33N 30°03' W 090°33'0 0.1
2014-Sep-13 16:33N 30°03' W 090°34'0 0.5
2014-Sep-13 15:33N 30°03' W 090°34'0 0.0
2014-Sep-13 14:33N 30°03' W 090°34'0 0.0
2014-Sep-13 13:33N 30°03' W 090°34'0 0.0
2014-Sep-13 12:33N 30°03' W 090°34'0 0.0
2014-Sep-13 11:33N 30°03' W 090°34'0 0.0
2014-Sep-13 10:33N 30°03' W 090°34'0 0.0
2014-Sep-13 09:33N 30°03' W 090°34'0 0.0
2014-Sep-13 08:33N 30°03' W 090°34'0 0.0
2014-Sep-13 07:33N 30°03' W 090°34'0 0.2
2014-Sep-13 06:33N 30°03' W 090°34'0 0.0
2014-Sep-13 05:33N 30°03' W 090°34'0 0.4
2014-Sep-13 04:33N 30°03' W 090°33'0 0.0
2014-Sep-13 03:33N 30°03' W 090°33'0 0.0
2014-Sep-13 02:33N 30°03' W 090°33'0 0.0
2014-Sep-13 01:33N 30°03' W 090°33'0 0.0
2014-Sep-13 00:33N 30°03' W 090°33'0 0.0
2014-Sep-12 23:33N 30°03' W 090°33'0 0.0
2014-Sep-12 22:33N 30°03' W 090°33'0 0.0
2014-Sep-12 21:33N 30°03' W 090°33'0 0.0
2014-Sep-12 20:33N 30°03' W 090°33'0 0.0
2014-Sep-12 19:33N 30°03' W 090°33'2 1.3
2014-Sep-12 18:15N 30°03' W 090°35'0 0.0
2014-Sep-12 17:27N 30°03' W 090°35'2 2.0
2014-Sep-12 16:33N 30°03' W 090°33'0 0.0
2014-Sep-12 15:33N 30°03' W 090°33'0 0.0
2014-Sep-12 14:33N 30°03' W 090°33'0 0.0
2014-Sep-12 13:33N 30°03' W 090°33'0 0.0
2014-Sep-12 12:33N 30°03' W 090°33'2 1.8
2014-Sep-12 11:33N 30°03' W 090°35'2 1.8
2014-Sep-12 10:33N 30°03' W 090°33'0 0.0
2014-Sep-12 09:33N 30°03' W 090°33'0 0.0
2014-Sep-12 08:33N 30°03' W 090°33'0 0.0
2014-Sep-12 07:33N 30°03' W 090°33'0 0.0
2014-Sep-12 06:33N 30°03' W 090°33'0 0.0
2014-Sep-12 05:33N 30°03' W 090°33'0 0.0
2014-Sep-12 04:33N 30°03' W 090°33'0 0.0
2014-Sep-12 03:33N 30°03' W 090°33'0 0.0
2014-Sep-12 02:33N 30°03' W 090°33'0 0.0
2014-Sep-12 01:33N 30°03' W 090°33'0 0.0
2014-Sep-12 00:33N 30°03' W 090°33'0 0.0
2014-Sep-11 23:33N 30°03' W 090°33'0 0.0
2014-Sep-11 22:33N 30°03' W 090°33'0 0.0
2014-Sep-11 21:33N 30°03' W 090°33'0 0.0
2014-Sep-11 20:33N 30°03' W 090°33'0 0.0
2014-Sep-11 19:33N 30°03' W 090°33'0 0.0
2014-Sep-11 18:33N 30°03' W 090°33'0 0.0
2014-Sep-11 17:33N 30°03' W 090°33'0 0.0
2014-Sep-11 16:33N 30°03' W 090°33'0 0.0
2014-Sep-11 15:33N 30°03' W 090°33'0 0.0
2014-Sep-11 14:33N 30°03' W 090°33'0 0.0
2014-Sep-11 13:33N 30°03' W 090°33'0 0.0
2014-Sep-11 12:33N 30°03' W 090°33'0 0.0
2014-Sep-11 11:33N 30°03' W 090°33'1 1.0
2014-Sep-11 10:33N 30°03' W 090°32'1 1.2
2014-Sep-11 09:33N 30°03' W 090°31'0 0.0
2014-Sep-11 08:33N 30°03' W 090°31'0 0.0
2014-Sep-11 07:33N 30°03' W 090°31'3 3.2
2014-Sep-11 06:33N 30°01' W 090°28'4 4.2
2014-Sep-11 05:33N 29°59' W 090°24'3 2.7
2014-Sep-11 04:33N 29°57' W 090°23'0 0.0
2014-Sep-11 03:33N 29°57' W 090°23'0 0.0
2014-Sep-11 02:33N 29°57' W 090°23'0 0.0
2014-Sep-11 01:32N 29°57' W 090°23'0 0.0
2014-Sep-11 00:32N 29°57' W 090°23'0 0.1
2014-Sep-10 23:33N 29°57' W 090°23'2 2.2
2014-Sep-10 22:29N 29°59' W 090°24'8 1.4
2014-Sep-10 16:33N 30°03' W 090°32'1 1.2
2014-Sep-10 15:33N 30°03' W 090°33'0 0.0
2014-Sep-10 14:33N 30°03' W 090°33'0 0.0
2014-Sep-10 13:33N 30°03' W 090°33'0 0.0
2014-Sep-10 12:33N 30°03' W 090°33'0 0.0
2014-Sep-10 11:33N 30°03' W 090°33'0 0.0
2014-Sep-10 10:33N 30°03' W 090°33'0 0.0
2014-Sep-10 09:33N 30°03' W 090°33'0 0.0
2014-Sep-10 08:33N 30°03' W 090°33'0 0.0
2014-Sep-10 07:33N 30°03' W 090°33'0 0.0
2014-Sep-10 06:33N 30°03' W 090°33'0 0.0
2014-Sep-10 05:33N 30°03' W 090°33'0 0.0
2014-Sep-10 04:33N 30°03' W 090°33'0 0.0
2014-Sep-10 03:33N 30°03' W 090°33'0 0.0
2014-Sep-10 02:33N 30°03' W 090°33'0 0.0
2014-Sep-10 01:33N 30°03' W 090°33'0 0.0
2014-Sep-10 00:33N 30°03' W 090°33'0 0.0
2014-Sep-09 23:33N 30°03' W 090°33'0 0.0
2014-Sep-09 22:33N 30°03' W 090°33'0 0.0
2014-Sep-09 21:33N 30°03' W 090°33'0 0.0
2014-Sep-09 20:33N 30°03' W 090°33'0 0.0
2014-Sep-09 19:33N 30°03' W 090°33'1 0.6
2014-Sep-09 18:33N 30°03' W 090°33'0 0.4
2014-Sep-09 17:33N 30°03' W 090°32'0 0.0
2014-Sep-09 16:33N 30°03' W 090°32'0 0.0
2014-Sep-09 15:33N 30°03' W 090°32'3 2.8
2014-Sep-09 14:33N 30°03' W 090°36'1 1.3
2014-Sep-09 13:33N 30°03' W 090°34'0 0.0
2014-Sep-09 12:33N 30°03' W 090°34'0 0.0
2014-Sep-09 11:33N 30°03' W 090°34'0 0.0
2014-Sep-09 10:33N 30°03' W 090°34'0 0.0
2014-Sep-09 09:33N 30°03' W 090°34'0 0.0
2014-Sep-09 08:33N 30°03' W 090°34'0 0.0
2014-Sep-09 07:33N 30°03' W 090°34'0 0.0
2014-Sep-09 06:33N 30°03' W 090°34'0 0.0
2014-Sep-09 05:30N 30°03' W 090°34'0 0.5
2014-Sep-09 04:33N 30°03' W 090°35'1 1.1
2014-Sep-09 03:33N 30°03' W 090°33'0 0.0
2014-Sep-09 02:33N 30°03' W 090°33'0 0.0
2014-Sep-09 01:33N 30°03' W 090°33'0 0.0
2014-Sep-09 00:33N 30°03' W 090°33'0 0.0
2014-Sep-08 23:33N 30°03' W 090°33'0 0.0
2014-Sep-08 22:33N 30°03' W 090°33'0 0.0
2014-Sep-08 21:33N 30°03' W 090°33'0 0.0
2014-Sep-08 20:33N 30°03' W 090°33'  

Dump ship's entire track history